createdAt,value
2023-04-21T00:02:27.398Z,2.40
2023-04-21T00:04:56.360Z,1.35
2023-04-21T00:07:24.717Z,1.88
2023-04-21T00:09:52.640Z,3.00
2023-04-21T00:12:20.673Z,3.05
2023-04-21T00:14:48.465Z,1.45
2023-04-21T00:17:17.651Z,1.10
2023-04-21T00:19:45.824Z,1.67
2023-04-21T00:22:14.924Z,2.20
2023-04-21T00:24:42.751Z,2.50
2023-04-21T00:27:11.377Z,1.50
2023-04-21T00:29:40.326Z,2.25
2023-04-21T00:32:10.099Z,2.90
2023-04-21T00:34:39.342Z,1.88
2023-04-21T00:37:07.118Z,1.88
2023-04-21T00:39:34.950Z,2.53
2023-04-21T00:42:02.765Z,1.25
2023-04-21T00:44:30.642Z,3.95
2023-04-21T00:46:58.566Z,2.17
2023-04-21T00:49:27.949Z,1.98
2023-04-21T00:51:57.240Z,2.47
2023-04-21T00:54:26.677Z,2.47
2023-04-21T00:56:56.041Z,2.15
2023-04-21T00:59:23.894Z,2.58
2023-04-21T01:01:52.872Z,2.40
2023-04-21T01:04:20.761Z,2.22
2023-04-21T01:06:48.953Z,1.70
2023-04-21T01:09:18.920Z,1.55
2023-04-21T01:12:02.118Z,2.05
2023-04-21T01:14:30.124Z,1.88
2023-04-21T01:16:59.148Z,3.13
2023-04-21T01:19:31.225Z,2.45
2023-04-21T01:22:01.155Z,2.67
2023-04-21T01:24:39.712Z,1.33
2023-04-21T01:27:11.438Z,1.75
2023-04-21T01:29:41.137Z,2.08
2023-04-21T01:32:11.167Z,2.90
2023-04-21T01:34:59.863Z,2.30
2023-04-21T01:37:31.862Z,1.50
2023-04-21T01:40:02.518Z,2.80
2023-04-21T01:42:31.248Z,1.08
2023-04-21T01:44:59.172Z,2.03
2023-04-21T01:47:27.363Z,2.47
2023-04-21T01:49:55.174Z,2.45
2023-04-21T01:52:23.069Z,2.17
2023-04-21T01:54:52.280Z,1.73
2023-04-21T01:57:20.272Z,2.53
2023-04-21T01:59:48.299Z,1.30
2023-04-21T02:02:16.344Z,1.85
2023-04-21T02:04:44.215Z,2.05
2023-04-21T02:07:11.998Z,2.60
2023-04-21T02:09:39.797Z,1.40
2023-04-21T02:12:09.229Z,2.42
2023-04-21T02:14:38.268Z,2.00
2023-04-21T02:17:07.000Z,1.75
2023-04-21T02:19:34.907Z,1.20
2023-04-21T02:22:03.005Z,1.73
2023-04-21T02:24:30.842Z,2.40
2023-04-21T02:26:58.639Z,1.98
2023-04-21T02:29:27.856Z,3.45
2023-04-21T02:32:02.904Z,1.85
2023-04-21T02:34:33.354Z,3.10
2023-04-21T02:37:01.296Z,1.48
2023-04-21T02:39:29.108Z,2.42
2023-04-21T02:41:57.211Z,2.08
2023-04-21T02:44:25.005Z,1.88
2023-04-21T02:46:54.359Z,1.88
2023-04-21T02:49:22.271Z,1.80
2023-04-21T02:51:50.211Z,1.55
2023-04-21T02:54:18.030Z,1.73
2023-04-21T02:56:46.186Z,1.98
2023-04-21T02:59:16.459Z,2.20
2023-04-21T03:01:44.574Z,1.27
2023-04-21T03:04:14.216Z,1.15
2023-04-21T03:06:42.104Z,2.67
2023-04-21T03:09:10.366Z,1.50
2023-04-21T03:11:38.164Z,2.28
2023-04-21T03:14:06.003Z,2.50
2023-04-21T03:16:33.960Z,2.05
2023-04-21T03:19:02.119Z,1.70
2023-04-21T03:21:31.545Z,1.67
2023-04-21T03:23:59.326Z,1.63
2023-04-21T03:26:27.144Z,1.90
2023-04-21T03:28:54.978Z,1.52
2023-04-21T03:31:22.848Z,2.33
2023-04-21T03:33:50.721Z,1.65
2023-04-21T03:36:18.549Z,1.55
2023-04-21T03:38:47.685Z,1.48
2023-04-21T03:41:15.543Z,2.00
2023-04-21T03:43:43.367Z,2.13
2023-04-21T03:46:19.216Z,0.90
2023-04-21T03:48:47.476Z,1.50
2023-04-21T03:51:15.384Z,1.30
2023-04-21T03:53:43.345Z,1.30
2023-04-21T03:56:12.655Z,1.70
2023-04-21T03:58:40.550Z,2.20
2023-04-21T04:01:08.400Z,2.28
2023-04-21T04:03:36.460Z,1.10
2023-04-21T04:06:04.479Z,1.13
2023-04-21T04:08:32.319Z,1.52
2023-04-21T04:11:00.269Z,1.30
2023-04-21T04:13:29.619Z,2.15
2023-04-21T04:15:58.591Z,1.52
2023-04-21T04:18:26.506Z,1.85
2023-04-21T04:20:54.271Z,1.95
2023-04-21T04:23:22.093Z,1.98
2023-04-21T04:25:51.845Z,1.67
2023-04-21T04:28:19.662Z,1.98
2023-04-21T04:30:48.751Z,1.90
2023-04-21T04:33:16.562Z,1.63
2023-04-21T04:35:44.347Z,1.27
2023-04-21T04:38:12.636Z,1.60
2023-04-21T04:40:40.514Z,1.55
2023-04-21T04:43:08.789Z,2.05
2023-04-21T04:45:37.354Z,1.30
2023-04-21T04:48:07.359Z,2.25
2023-04-21T04:50:35.338Z,1.10
2023-04-21T04:53:03.147Z,1.98
2023-04-21T04:55:30.927Z,2.53
2023-04-21T04:57:58.762Z,1.27
2023-04-21T05:00:26.798Z,2.15
2023-04-21T05:02:54.762Z,1.38
2023-04-21T05:05:24.833Z,1.75
2023-04-21T05:07:52.650Z,2.40
2023-04-21T05:10:20.625Z,1.50
2023-04-21T05:12:48.426Z,1.20
2023-04-21T05:15:16.257Z,1.75
2023-04-21T05:17:44.057Z,1.00
2023-04-21T05:20:12.530Z,1.90
2023-04-21T05:22:42.044Z,1.55
2023-04-21T05:25:12.628Z,1.50
2023-04-21T05:27:40.842Z,1.05
2023-04-21T05:30:09.816Z,2.20
2023-04-21T05:32:37.774Z,2.10
2023-04-21T05:35:06.234Z,1.15
2023-04-21T05:37:34.065Z,1.52
2023-04-21T05:40:03.549Z,1.50
2023-04-21T05:42:31.354Z,1.65
2023-04-21T05:44:59.242Z,1.70
2023-04-21T05:47:27.110Z,1.15
2023-04-21T05:49:55.090Z,2.17
2023-04-21T05:52:22.932Z,1.38
2023-04-21T05:54:50.890Z,1.67
2023-04-21T05:57:20.028Z,0.98
2023-04-21T05:59:47.853Z,1.83
2023-04-21T06:02:15.714Z,1.27
2023-04-21T06:04:43.841Z,1.65
2023-04-21T06:07:13.545Z,1.10
2023-04-21T06:09:42.100Z,0.82
2023-04-21T06:12:09.993Z,1.25
2023-04-21T06:14:39.146Z,1.45
2023-04-21T06:17:06.927Z,2.17
2023-04-21T06:19:38.387Z,2.22
2023-04-21T06:22:06.250Z,1.90
2023-04-21T06:24:34.154Z,1.83
2023-04-21T06:27:02.351Z,1.92
2023-04-21T06:29:30.177Z,2.67
2023-04-21T06:31:59.318Z,2.72
2023-04-21T06:34:27.133Z,1.13
2023-04-21T06:36:55.096Z,1.67
2023-04-21T06:39:22.921Z,0.90
2023-04-21T06:41:50.688Z,2.10
2023-04-21T06:44:18.731Z,1.58
2023-04-21T06:46:47.257Z,2.42
2023-04-21T06:49:16.635Z,1.90
2023-04-21T06:51:44.540Z,1.63
2023-04-21T06:54:12.346Z,2.28
2023-04-21T06:56:41.403Z,1.65
2023-04-21T06:59:09.284Z,1.38
2023-04-21T07:01:37.256Z,2.17
2023-04-21T07:04:06.826Z,1.17
2023-04-21T07:06:36.105Z,0.85
2023-04-21T07:09:03.934Z,2.15
2023-04-21T07:11:31.709Z,1.67
2023-04-21T07:14:02.263Z,1.58
2023-04-21T07:16:30.240Z,1.50
2023-04-21T07:18:58.046Z,1.88
2023-04-21T07:21:25.927Z,1.63
2023-04-21T07:23:55.082Z,1.27
2023-04-21T07:26:22.901Z,2.20
2023-04-21T07:28:52.398Z,1.20
2023-04-21T07:31:20.447Z,0.90
2023-04-21T07:33:48.302Z,1.30
2023-04-21T07:36:16.736Z,1.50
2023-04-21T07:38:44.693Z,1.08
2023-04-21T07:41:14.595Z,0.93
2023-04-21T07:43:42.476Z,1.88
2023-04-21T07:46:10.345Z,1.90
2023-04-21T07:48:38.149Z,1.10
2023-04-21T07:51:06.093Z,1.45
2023-04-21T07:53:34.009Z,0.77
2023-04-21T07:56:01.872Z,1.25
2023-04-21T07:58:31.074Z,1.67
2023-04-21T08:00:58.857Z,1.48
2023-04-21T08:03:26.998Z,1.75
2023-04-21T08:05:55.294Z,1.25
2023-04-21T08:08:23.359Z,1.67
2023-04-21T08:10:51.199Z,0.65
2023-04-21T08:13:20.933Z,1.08
2023-04-21T08:15:50.090Z,2.22
2023-04-21T08:18:21.220Z,1.13
2023-04-21T08:20:52.290Z,2.15
2023-04-21T08:23:20.417Z,1.33
2023-04-21T08:25:48.264Z,2.15
2023-04-21T08:28:16.102Z,1.13
2023-04-21T08:30:44.112Z,1.40
2023-04-21T08:33:14.401Z,2.55
2023-04-21T08:35:54.867Z,0.82
2023-04-21T08:38:30.277Z,2.22
2023-04-21T08:41:00.582Z,2.53
2023-04-21T08:43:29.487Z,1.63
2023-04-21T08:45:58.020Z,2.20
2023-04-21T08:48:28.881Z,0.90
2023-04-21T08:50:57.352Z,1.10
2023-04-21T08:53:25.227Z,1.50
2023-04-21T08:56:07.641Z,4.05
2023-04-21T08:58:39.081Z,2.00
2023-04-21T09:01:06.928Z,1.85
2023-04-21T09:03:36.557Z,1.63
2023-04-21T09:06:06.916Z,2.25
2023-04-21T09:08:35.875Z,1.27
2023-04-21T09:11:03.686Z,1.33
2023-04-21T09:13:33.061Z,2.15
2023-04-21T09:16:02.019Z,1.60
2023-04-21T09:18:35.238Z,1.90
2023-04-21T09:21:09.645Z,1.50
2023-04-21T09:23:42.504Z,0.82
2023-04-21T09:26:11.013Z,1.77
2023-04-21T09:28:42.691Z,2.38
2023-04-21T09:31:19.705Z,1.38
2023-04-21T09:36:22.420Z,1.77
2023-04-21T09:41:31.755Z,1.40
2023-04-21T09:44:01.651Z,1.92
2023-04-21T09:46:32.462Z,2.28
2023-04-21T09:49:02.170Z,2.58
2023-04-21T09:54:29.093Z,2.65
2023-04-21T09:57:01.655Z,1.77
2023-04-21T09:59:33.321Z,2.00
2023-04-21T10:02:02.178Z,1.63
2023-04-21T10:04:32.905Z,2.20
2023-04-21T10:07:02.751Z,1.38
2023-04-21T10:09:35.980Z,2.45
2023-04-21T10:12:06.917Z,1.83
2023-04-21T10:14:36.377Z,1.35
2023-04-21T10:17:06.130Z,1.80
2023-04-21T10:19:39.772Z,2.10
2023-04-21T10:22:10.503Z,1.50
2023-04-21T10:24:39.812Z,2.15
2023-04-21T10:27:11.149Z,2.05
2023-04-21T10:29:52.626Z,2.00
2023-04-21T10:32:40.127Z,2.78
2023-04-21T10:35:10.773Z,1.52
2023-04-21T10:37:42.287Z,1.38
2023-04-21T10:43:07.158Z,1.40
2023-04-21T10:45:35.010Z,1.50
2023-04-21T10:48:03.914Z,2.35
2023-04-21T10:50:32.752Z,1.23
2023-04-21T10:53:11.300Z,1.30
2023-04-21T10:55:42.138Z,1.23
2023-04-21T10:58:10.595Z,2.03
2023-04-21T11:00:39.290Z,2.00
2023-04-21T11:03:08.919Z,2.58
2023-04-21T11:05:39.334Z,2.33
2023-04-21T11:08:12.296Z,2.17
2023-04-21T11:10:49.081Z,2.20
2023-04-21T11:13:17.329Z,1.80
2023-04-21T11:15:58.304Z,0.82
2023-04-21T11:18:41.168Z,2.25
2023-04-21T11:21:10.654Z,1.30
2023-04-21T11:23:43.036Z,2.80
2023-04-21T11:26:10.861Z,1.20
2023-04-21T11:28:41.389Z,1.30
2023-04-21T11:31:09.431Z,1.63
2023-04-21T11:33:37.811Z,2.10
2023-04-21T11:36:07.007Z,3.28
2023-04-21T11:38:39.915Z,0.93
2023-04-21T11:41:10.505Z,1.20
2023-04-21T11:43:39.212Z,1.52
2023-04-21T11:46:19.472Z,0.98
2023-04-21T11:48:47.331Z,1.13
2023-04-21T11:51:17.577Z,1.10
2023-04-21T11:53:48.782Z,1.08
2023-04-21T11:56:21.622Z,1.55
2023-04-21T11:58:51.600Z,1.38
2023-04-21T12:01:20.744Z,1.63
2023-04-21T12:03:53.271Z,1.08
2023-04-21T12:06:22.736Z,1.58
2023-04-21T12:08:55.848Z,1.80
2023-04-21T12:11:25.932Z,0.90
2023-04-21T12:13:53.719Z,1.30
2023-04-21T12:16:21.617Z,1.60
2023-04-21T12:18:49.933Z,1.90
2023-04-21T12:21:17.727Z,1.20
2023-04-21T12:23:45.788Z,1.85
2023-04-21T12:26:13.831Z,1.00
2023-04-21T12:28:42.955Z,1.20
2023-04-21T12:31:11.339Z,1.85
2023-04-21T12:33:39.226Z,1.35
2023-04-21T12:36:07.467Z,0.77
2023-04-21T12:38:35.322Z,0.85
2023-04-21T12:41:03.126Z,1.58
2023-04-21T12:43:30.965Z,1.23
2023-04-21T12:46:00.985Z,1.30
2023-04-21T12:48:28.845Z,1.48
2023-04-21T12:50:56.660Z,1.63
2023-04-21T12:53:24.464Z,1.15
2023-04-21T12:56:03.426Z,1.02
2023-04-21T12:58:32.830Z,1.67
2023-04-21T13:01:02.075Z,1.08
2023-04-21T13:03:30.072Z,0.70
2023-04-21T13:05:58.465Z,0.80
2023-04-21T13:08:26.520Z,1.20
2023-04-21T13:10:55.460Z,1.25
2023-04-21T13:13:23.477Z,1.33
2023-04-21T13:15:51.308Z,0.70
2023-04-21T13:18:20.757Z,1.55
2023-04-21T13:20:48.594Z,0.80
2023-04-21T13:23:16.569Z,1.10
2023-04-21T13:25:45.700Z,1.00
2023-04-21T13:28:14.430Z,0.95
2023-04-21T13:30:42.350Z,1.40
2023-04-21T13:33:11.311Z,1.35
2023-04-21T13:35:40.661Z,0.90
2023-04-21T13:38:08.554Z,1.17
2023-04-21T13:40:36.636Z,1.30
2023-04-21T13:43:04.809Z,1.40
2023-04-21T13:45:32.751Z,1.33
2023-04-21T13:48:00.568Z,2.17
2023-04-21T13:50:28.401Z,1.90
2023-04-21T13:52:57.617Z,1.67
2023-04-21T13:55:26.196Z,1.10
2023-04-21T13:57:54.204Z,0.98
2023-04-21T14:00:22.575Z,1.05
2023-04-21T14:02:50.642Z,0.90
2023-04-21T14:05:18.895Z,0.90
2023-04-21T14:07:46.786Z,1.20
2023-04-21T14:10:16.040Z,1.10
2023-04-21T14:12:44.949Z,1.17
2023-04-21T14:15:13.303Z,0.90
2023-04-21T14:17:41.338Z,0.88
2023-04-21T14:20:10.294Z,1.02
2023-04-21T14:22:38.118Z,1.30
2023-04-21T14:25:06.665Z,1.25
2023-04-21T14:27:35.830Z,0.95
2023-04-21T14:30:03.706Z,1.33
2023-04-21T14:32:31.610Z,1.35
2023-04-21T14:35:03.106Z,0.85
2023-04-21T14:37:30.952Z,0.65
2023-04-21T14:39:58.838Z,0.70
2023-04-21T14:42:26.722Z,0.75
2023-04-21T14:44:55.865Z,0.90
2023-04-21T14:47:23.789Z,0.88
2023-04-21T14:49:55.036Z,0.75
2023-04-21T14:52:25.725Z,0.82
2023-04-21T14:54:53.824Z,1.48
2023-04-21T14:57:22.551Z,0.95
2023-04-21T14:59:51.324Z,1.05
2023-04-21T15:02:21.967Z,1.25
2023-04-21T15:04:51.025Z,0.75
2023-04-21T15:07:23.855Z,1.00
2023-04-21T15:09:52.768Z,0.50
2023-04-21T15:12:20.868Z,0.70
2023-04-21T15:14:48.650Z,0.70
2023-04-21T15:17:16.590Z,0.70
2023-04-21T15:19:45.734Z,0.98
2023-04-21T15:22:15.010Z,1.00
2023-04-21T15:24:42.892Z,1.10
2023-04-21T15:27:10.760Z,1.20
2023-04-21T15:29:38.636Z,0.65
2023-04-21T15:32:06.586Z,0.90
2023-04-21T15:34:34.385Z,1.00
2023-04-21T15:37:03.514Z,0.47
2023-04-21T15:39:31.330Z,1.38
2023-04-21T15:41:59.748Z,1.10
2023-04-21T15:44:27.658Z,1.20
2023-04-21T15:46:55.632Z,1.40
2023-04-21T15:49:33.019Z,0.73
2023-04-21T15:52:01.040Z,0.90
2023-04-21T15:54:31.156Z,0.60
2023-04-21T15:56:59.199Z,0.60
2023-04-21T15:59:27.148Z,1.05
2023-04-21T16:01:56.701Z,0.85
2023-04-21T16:04:24.742Z,0.65
2023-04-21T16:06:52.770Z,0.70
2023-04-21T16:09:21.553Z,0.73
2023-04-21T16:11:51.318Z,1.00
2023-04-21T16:14:19.710Z,0.80
2023-04-21T16:16:47.560Z,0.90
2023-04-21T16:19:16.255Z,0.80
2023-04-21T16:21:44.510Z,1.10
2023-04-21T16:24:12.554Z,0.90
2023-04-21T16:26:41.273Z,0.85
2023-04-21T16:29:10.558Z,1.05
2023-04-21T16:31:38.429Z,0.80
2023-04-21T16:34:06.246Z,0.70
2023-04-21T16:36:34.582Z,0.88
2023-04-21T16:39:02.542Z,0.80
2023-04-21T16:41:30.809Z,0.70
2023-04-21T16:43:58.827Z,1.02
2023-04-21T16:46:28.024Z,0.90
2023-04-21T16:48:56.030Z,0.85
2023-04-21T16:51:26.090Z,0.60
2023-04-21T16:53:54.603Z,0.93
2023-04-21T16:56:22.549Z,0.70
2023-04-21T16:58:50.475Z,0.85
2023-04-21T17:01:18.320Z,0.60
2023-04-21T17:03:47.564Z,0.50
2023-04-21T17:06:19.423Z,0.60
2023-04-21T17:08:47.301Z,1.10
2023-04-21T17:11:15.195Z,0.93
2023-04-21T17:13:43.022Z,2.25
2023-04-21T17:16:11.086Z,0.93
2023-04-21T17:18:38.964Z,0.68
2023-04-21T17:21:08.158Z,0.90
2023-04-21T17:23:36.158Z,0.73
2023-04-21T17:26:05.066Z,1.15
2023-04-21T17:28:33.502Z,0.77
2023-04-21T17:31:13.745Z,0.82
2023-04-21T17:33:43.410Z,1.00
2023-04-21T17:36:13.663Z,0.60
2023-04-21T17:38:42.574Z,0.60
2023-04-21T17:41:10.605Z,0.90
2023-04-21T17:43:38.444Z,1.30
2023-04-21T17:46:07.355Z,0.60
2023-04-21T17:48:35.328Z,1.08
2023-04-21T17:51:03.937Z,0.60
2023-04-21T17:53:33.203Z,0.70
2023-04-21T17:56:01.034Z,0.40
2023-04-21T17:58:29.251Z,0.60
2023-04-21T18:00:57.108Z,0.60
2023-04-21T18:03:25.155Z,0.60
2023-04-21T18:05:53.192Z,0.85
2023-04-21T18:08:21.683Z,0.90
2023-04-21T18:10:50.826Z,0.50
2023-04-21T18:13:18.635Z,0.68
2023-04-21T18:15:46.457Z,0.70
2023-04-21T18:18:14.329Z,0.82
2023-04-21T18:20:42.179Z,0.70
2023-04-21T18:23:10.025Z,1.10
2023-04-21T18:25:42.764Z,0.40
2023-04-21T18:28:12.828Z,0.40
2023-04-21T18:30:41.256Z,0.40
2023-04-21T18:33:09.567Z,0.50
2023-04-21T18:35:37.489Z,0.50
2023-04-21T18:38:07.810Z,0.60
2023-04-21T18:40:37.015Z,0.60
2023-04-21T18:43:05.262Z,0.40
2023-04-21T18:45:34.913Z,0.40
2023-04-21T18:48:02.816Z,0.55
2023-04-21T18:50:32.271Z,0.50
2023-04-21T18:53:00.478Z,0.77
2023-04-21T18:55:28.367Z,0.55
2023-04-21T18:57:56.181Z,0.88
2023-04-21T19:00:24.115Z,1.05
2023-04-21T19:02:53.614Z,0.60
2023-04-21T19:05:21.627Z,1.33
2023-04-21T19:07:49.394Z,0.80
2023-04-21T19:10:17.328Z,0.93
2023-04-21T19:12:45.247Z,0.70
2023-04-21T19:15:13.437Z,0.57
2023-04-21T19:17:41.658Z,0.80
2023-04-21T19:20:12.655Z,0.43
2023-04-21T19:22:40.541Z,0.60
2023-04-21T19:25:08.900Z,0.88
2023-04-21T19:27:37.216Z,0.50
2023-04-21T19:30:05.987Z,0.55
2023-04-21T19:32:33.891Z,1.10
2023-04-21T19:35:02.315Z,0.90
2023-04-21T19:37:33.599Z,0.60
2023-04-21T19:40:03.111Z,1.75
2023-04-21T19:42:31.456Z,1.13
2023-04-21T19:44:59.246Z,0.82
2023-04-21T19:47:27.150Z,0.50
2023-04-21T19:49:55.017Z,0.40
2023-04-21T19:52:22.793Z,0.57
2023-04-21T19:54:51.925Z,0.60
2023-04-21T19:57:19.912Z,0.40
2023-04-21T19:59:48.968Z,0.52
2023-04-21T20:02:17.029Z,0.63
2023-04-21T20:04:45.128Z,0.75
2023-04-21T20:07:13.096Z,0.50
2023-04-21T20:09:41.034Z,0.65
2023-04-21T20:12:10.392Z,0.40
2023-04-21T20:14:38.785Z,0.90
2023-04-21T20:17:06.621Z,1.17
2023-04-21T20:19:35.559Z,0.50
2023-04-21T20:22:03.790Z,0.65
2023-04-21T20:24:31.675Z,0.50
2023-04-21T20:26:59.826Z,0.73
2023-04-21T20:29:28.995Z,0.60
2023-04-21T20:31:57.292Z,0.82
2023-04-21T20:34:25.571Z,0.45
2023-04-21T20:36:54.453Z,0.60
2023-04-21T20:39:22.356Z,0.85
2023-04-21T20:42:01.008Z,0.70
2023-04-21T20:44:38.666Z,0.65
2023-04-21T20:47:08.143Z,0.50
2023-04-21T20:49:36.510Z,0.57
2023-04-21T20:52:04.439Z,0.47
2023-04-21T20:54:34.475Z,0.40
2023-04-21T20:57:02.747Z,0.57
2023-04-21T20:59:30.642Z,0.95
2023-04-21T21:01:59.832Z,0.40
2023-04-21T21:04:27.925Z,0.80
2023-04-21T21:06:56.005Z,0.80
2023-04-21T21:09:23.817Z,0.75
2023-04-21T21:11:51.693Z,1.00
2023-04-21T21:14:19.551Z,0.68
2023-04-21T21:16:47.508Z,1.38
2023-04-21T21:19:16.732Z,0.70
2023-04-21T21:21:44.546Z,1.50
2023-04-21T21:24:12.476Z,1.75
2023-04-21T21:26:42.685Z,0.60
2023-04-21T21:29:10.778Z,0.50
2023-04-21T21:31:38.877Z,0.60
2023-04-21T21:34:06.724Z,0.60
2023-04-21T21:36:36.119Z,0.70
2023-04-21T21:39:03.993Z,0.60
2023-04-21T21:41:31.810Z,0.93
2023-04-21T21:43:59.756Z,1.00
2023-04-21T21:46:27.636Z,0.40
2023-04-21T21:48:55.531Z,0.75
2023-04-21T21:51:23.353Z,0.50
2023-04-21T21:53:52.546Z,0.40
2023-04-21T21:56:20.379Z,0.40
2023-04-21T21:58:48.451Z,0.50
2023-04-21T22:01:18.141Z,0.50
2023-04-21T22:03:47.226Z,0.60
2023-04-21T22:06:17.211Z,0.63
2023-04-21T22:08:45.519Z,0.57
2023-04-21T22:11:14.762Z,0.80
2023-04-21T22:13:42.588Z,0.65
2023-04-21T22:16:10.424Z,0.77
2023-04-21T22:18:38.333Z,0.40
2023-04-21T22:21:06.239Z,0.55
2023-04-21T22:23:34.089Z,0.40
2023-04-21T22:26:02.062Z,0.50
2023-04-21T22:28:31.239Z,0.45
2023-04-21T22:30:59.120Z,0.60
2023-04-21T22:33:26.937Z,0.57
2023-04-21T22:35:54.790Z,0.40
2023-04-21T22:38:22.657Z,0.40
2023-04-21T22:40:50.468Z,0.50
2023-04-21T22:43:18.319Z,0.40
2023-04-21T22:45:48.206Z,0.50
2023-04-21T22:48:16.976Z,0.45
2023-04-21T22:50:44.827Z,0.50
2023-04-21T22:53:13.367Z,0.50
2023-04-21T22:55:41.215Z,0.50
2023-04-21T22:58:09.117Z,0.47
2023-04-21T23:00:36.995Z,0.50
2023-04-21T23:03:06.478Z,0.50
2023-04-21T23:05:34.532Z,0.65
2023-04-21T23:08:03.011Z,0.77
2023-04-21T23:10:30.830Z,0.50
2023-04-21T23:12:59.850Z,0.43
2023-04-21T23:15:29.362Z,0.45
2023-04-21T23:17:57.175Z,0.40
2023-04-21T23:20:26.880Z,0.40
2023-04-21T23:22:54.766Z,0.63
2023-04-21T23:25:22.654Z,0.30
2023-04-21T23:27:50.522Z,0.68
2023-04-21T23:30:18.603Z,0.38
2023-04-21T23:32:46.670Z,0.35
2023-04-21T23:35:14.514Z,0.40
2023-04-21T23:37:43.695Z,0.43
2023-04-21T23:40:12.562Z,0.40
2023-04-21T23:42:40.724Z,0.30
2023-04-21T23:45:11.115Z,0.50
2023-04-21T23:47:38.998Z,0.40
2023-04-21T23:50:08.007Z,0.50
2023-04-21T23:52:36.097Z,0.40
2023-04-21T23:55:06.015Z,0.60
2023-04-21T23:57:33.793Z,0.30
